createdAt,value
2018-04-06T00:00:30.826Z,4.10
2018-04-06T00:02:58.401Z,4.00
2018-04-06T00:05:25.944Z,4.00
2018-04-06T00:07:53.513Z,3.90
2018-04-06T00:10:21.054Z,3.80
2018-04-06T00:12:48.620Z,3.80
2018-04-06T00:15:16.160Z,3.80
2018-04-06T00:17:44.542Z,3.80
2018-04-06T00:20:12.057Z,3.80
2018-04-06T00:22:39.628Z,3.70
2018-04-06T00:25:07.163Z,3.60
2018-04-06T00:27:34.803Z,3.50
2018-04-06T00:30:02.364Z,3.50
2018-04-06T00:32:29.923Z,3.50
2018-04-06T00:34:57.457Z,3.50
2018-04-06T00:37:25.788Z,3.40
2018-04-06T00:39:54.108Z,3.40
2018-04-06T00:42:22.435Z,3.40
2018-04-06T00:44:49.971Z,3.40
2018-04-06T00:47:17.549Z,3.40
2018-04-06T00:49:45.117Z,3.40
2018-04-06T00:52:12.648Z,3.40
2018-04-06T00:54:40.221Z,3.50
2018-04-06T00:57:07.773Z,3.50
2018-04-06T00:59:35.357Z,3.60
2018-04-06T01:02:03.656Z,3.80
2018-04-06T01:04:31.206Z,3.80
2018-04-06T01:06:58.741Z,3.90
2018-04-06T01:09:26.309Z,4.00
2018-04-06T01:11:53.856Z,4.00
2018-04-06T01:14:21.443Z,4.10
2018-04-06T01:16:48.993Z,4.10
2018-04-06T01:19:16.557Z,4.00
2018-04-06T01:21:44.106Z,4.00
2018-04-06T01:24:11.679Z,4.00
2018-04-06T01:26:39.230Z,4.00
2018-04-06T01:29:06.793Z,4.00
2018-04-06T01:31:34.350Z,4.00
2018-04-06T01:34:01.911Z,3.90
2018-04-06T01:36:29.461Z,3.90
2018-04-06T01:38:57.024Z,3.80
2018-04-06T01:41:24.569Z,3.70
2018-04-06T01:43:52.145Z,3.70
2018-04-06T01:46:19.693Z,3.60
2018-04-06T01:48:47.255Z,3.60
2018-04-06T01:51:14.808Z,3.60
2018-04-06T01:53:42.372Z,3.60
2018-04-06T01:56:09.922Z,3.60
2018-04-06T01:58:37.473Z,3.50
2018-04-06T02:01:05.052Z,3.50
2018-04-06T02:03:32.578Z,3.50
2018-04-06T02:06:00.167Z,3.40
2018-04-06T02:08:27.712Z,3.40
2018-04-06T02:10:55.275Z,3.40
2018-04-06T02:13:22.814Z,3.30
2018-04-06T02:15:50.383Z,3.30
2018-04-06T02:18:17.923Z,3.30
2018-04-06T02:20:46.253Z,3.20
2018-04-06T02:23:13.793Z,3.20
2018-04-06T02:25:41.364Z,3.20
2018-04-06T02:28:08.905Z,3.10
2018-04-06T02:30:36.488Z,3.10
2018-04-06T02:33:04.028Z,3.10
2018-04-06T02:35:31.620Z,3.00
2018-04-06T02:37:59.168Z,3.00
2018-04-06T02:40:26.741Z,3.00
2018-04-06T02:42:54.299Z,2.90
2018-04-06T02:45:21.880Z,2.90
2018-04-06T02:47:49.444Z,2.80
2018-04-06T02:50:17.779Z,2.70
2018-04-06T02:52:45.328Z,2.70
2018-04-06T02:55:12.898Z,2.70
2018-04-06T02:57:40.462Z,2.70
2018-04-06T03:00:08.033Z,2.60
2018-04-06T03:02:35.580Z,2.50
2018-04-06T03:05:03.182Z,2.50
2018-04-06T03:07:31.491Z,2.30
2018-04-06T03:09:59.079Z,2.30
2018-04-06T03:12:26.629Z,2.20
2018-04-06T03:14:54.236Z,2.20
2018-04-06T03:17:21.768Z,2.20
2018-04-06T03:19:49.308Z,2.30
2018-04-06T03:22:16.888Z,2.30
2018-04-06T03:24:44.427Z,2.30
2018-04-06T03:27:11.982Z,2.20
2018-04-06T03:29:39.524Z,2.20
2018-04-06T03:32:07.098Z,2.20
2018-04-06T03:34:34.656Z,2.20
2018-04-06T03:37:02.226Z,2.10
2018-04-06T03:39:29.780Z,1.90
2018-04-06T03:41:57.378Z,1.90
2018-04-06T03:44:24.929Z,1.80
2018-04-06T03:46:52.504Z,1.80
2018-04-06T03:49:20.057Z,1.80
2018-04-06T03:51:47.602Z,1.90
2018-04-06T03:54:15.169Z,1.90
2018-04-06T03:56:42.720Z,1.90
2018-04-06T03:59:10.287Z,2.00
2018-04-06T04:01:37.819Z,2.00
2018-04-06T04:04:05.381Z,2.10
2018-04-06T04:06:32.929Z,2.10
2018-04-06T04:09:00.494Z,2.10
2018-04-06T04:11:28.033Z,2.00
2018-04-06T04:13:55.601Z,2.00
2018-04-06T04:16:23.150Z,1.90
2018-04-06T04:18:50.734Z,1.90
2018-04-06T04:21:18.277Z,1.90
2018-04-06T04:23:45.848Z,1.90
2018-04-06T04:26:13.396Z,1.90
2018-04-06T04:28:40.973Z,1.90
2018-04-06T04:31:08.509Z,2.00
2018-04-06T04:33:36.075Z,2.00
2018-04-06T04:36:03.727Z,2.00
2018-04-06T04:38:31.301Z,2.00
2018-04-06T04:40:58.887Z,2.00
2018-04-06T04:43:26.432Z,2.00
2018-04-06T04:45:54.019Z,2.10
2018-04-06T04:48:21.573Z,2.10
2018-04-06T04:50:49.137Z,2.10
2018-04-06T04:53:16.704Z,2.00
2018-04-06T04:55:44.289Z,1.90
2018-04-06T04:58:12.604Z,1.90
2018-04-06T05:00:40.171Z,1.90
2018-04-06T05:03:07.715Z,2.00
2018-04-06T05:05:35.281Z,1.90
2018-04-06T05:08:02.846Z,2.00
2018-04-06T05:10:30.421Z,2.00
2018-04-06T05:12:57.972Z,2.00
2018-04-06T05:15:25.554Z,2.00
2018-04-06T05:17:53.112Z,2.10
2018-04-06T05:20:20.692Z,2.20
2018-04-06T05:22:49.016Z,2.30
2018-04-06T05:25:16.557Z,2.30
2018-04-06T05:27:44.143Z,2.30
2018-04-06T05:30:11.688Z,2.30
2018-04-06T05:32:39.261Z,2.40
2018-04-06T05:35:06.812Z,2.40
2018-04-06T05:37:34.383Z,2.40
2018-04-06T05:40:01.924Z,2.60
2018-04-06T05:42:29.496Z,2.70
2018-04-06T05:44:57.722Z,2.80
2018-04-06T05:47:26.081Z,2.90
2018-04-06T05:49:53.624Z,2.90
2018-04-06T05:52:21.205Z,3.00
2018-04-06T05:54:48.759Z,3.10
2018-04-06T05:57:16.325Z,3.10
2018-04-06T05:59:43.875Z,3.20
2018-04-06T06:02:11.435Z,3.30
2018-04-06T06:04:38.988Z,3.30
2018-04-06T06:07:06.560Z,3.40
2018-04-06T06:09:34.119Z,3.50
2018-04-06T06:12:01.701Z,3.50
2018-04-06T06:14:30.069Z,3.70
2018-04-06T06:16:58.438Z,3.80
2018-04-06T06:19:26.798Z,3.90
2018-04-06T06:21:54.349Z,3.90
2018-04-06T06:24:21.941Z,4.10
2018-04-06T06:26:49.484Z,4.20
2018-04-06T06:29:17.095Z,4.30
2018-04-06T06:31:44.653Z,4.40
2018-04-06T06:34:12.242Z,4.50
2018-04-06T06:36:39.790Z,4.70
2018-04-06T06:39:07.367Z,4.90
2018-04-06T06:41:34.917Z,5.20
2018-04-06T06:44:02.490Z,5.60
2018-04-06T06:46:30.816Z,6.20
2018-04-06T06:48:59.160Z,6.40
2018-04-06T06:51:26.722Z,6.40
2018-04-06T06:53:54.287Z,6.70
2018-04-06T06:56:21.855Z,6.90
2018-04-06T06:58:50.204Z,7.20
2018-04-06T07:01:17.765Z,7.20
2018-04-06T07:03:45.309Z,7.40
2018-04-06T07:06:12.871Z,7.50
2018-04-06T07:08:40.418Z,7.70
2018-04-06T07:11:07.997Z,7.80
2018-04-06T07:13:35.545Z,7.90
2018-04-06T07:16:03.140Z,8.10
2018-04-06T07:18:30.685Z,8.30
2018-04-06T07:20:58.259Z,8.50
2018-04-06T07:23:25.809Z,8.70
2018-04-06T07:25:53.383Z,8.90
2018-04-06T07:28:20.936Z,9.10
2018-04-06T07:30:48.497Z,9.30
2018-04-06T07:33:16.036Z,9.40
2018-04-06T07:35:43.607Z,9.60
2018-04-06T07:38:11.163Z,9.70
2018-04-06T07:40:38.728Z,9.90
2018-04-06T07:43:06.281Z,10.20
2018-04-06T07:45:33.845Z,10.30
2018-04-06T07:48:01.389Z,10.50
2018-04-06T07:50:29.720Z,10.50
2018-04-06T07:52:58.034Z,10.60
2018-04-06T07:55:25.576Z,10.60
2018-04-06T07:57:53.153Z,10.50
2018-04-06T08:00:20.726Z,10.50
2018-04-06T08:02:48.297Z,10.60
2018-04-06T08:05:15.839Z,10.60
2018-04-06T08:07:43.408Z,10.70
2018-04-06T08:10:10.963Z,10.80
2018-04-06T08:12:38.529Z,10.90
2018-04-06T08:15:06.070Z,11.00
2018-04-06T08:17:33.645Z,11.10
2018-04-06T08:20:01.193Z,11.20
2018-04-06T08:22:28.765Z,11.10
2018-04-06T08:24:56.313Z,11.10
2018-04-06T08:27:23.884Z,11.20
2018-04-06T08:29:51.459Z,11.30
2018-04-06T08:32:19.032Z,11.40
2018-04-06T08:34:46.586Z,11.40
2018-04-06T08:37:14.160Z,11.60
2018-04-06T08:39:42.476Z,11.80
2018-04-06T08:42:10.024Z,11.80
2018-04-06T08:44:37.593Z,12.00
2018-04-06T08:47:05.136Z,12.10
2018-04-06T08:49:32.705Z,12.20
2018-04-06T08:52:00.257Z,12.40
2018-04-06T08:54:27.841Z,12.60
2018-04-06T08:56:55.390Z,12.60
2018-04-06T08:59:22.966Z,12.70
2018-04-06T09:01:50.511Z,12.90
2018-04-06T09:04:18.082Z,13.10
2018-04-06T09:06:45.617Z,13.10
2018-04-06T09:09:13.184Z,13.10
2018-04-06T09:11:40.729Z,13.20
2018-04-06T09:14:08.301Z,13.20
2018-04-06T09:16:35.845Z,13.10
2018-04-06T09:19:03.418Z,13.20
2018-04-06T09:21:30.971Z,13.40
2018-04-06T09:23:58.546Z,13.60
2018-04-06T09:26:26.095Z,13.70
2018-04-06T09:28:53.681Z,13.70
2018-04-06T09:31:21.219Z,13.70
2018-04-06T09:33:49.061Z,13.70
2018-04-06T09:36:16.592Z,13.80
2018-04-06T09:38:44.145Z,13.80
2018-04-06T09:41:11.714Z,13.90
2018-04-06T09:43:39.254Z,14.00
2018-04-06T09:46:06.818Z,14.00
2018-04-06T09:48:34.370Z,14.20
2018-04-06T09:51:01.946Z,14.30
2018-04-06T09:53:29.493Z,14.40
2018-04-06T09:55:57.074Z,14.40
2018-04-06T09:58:24.620Z,14.50
2018-04-06T10:00:57.787Z,14.40
2018-04-06T10:03:25.328Z,14.50
2018-04-06T10:05:52.908Z,14.60
2018-04-06T10:08:20.459Z,14.70
2018-04-06T10:10:48.027Z,14.70
2018-04-06T10:13:15.594Z,14.80
2018-04-06T10:15:43.141Z,14.80
2018-04-06T10:18:10.700Z,14.80
2018-04-06T10:20:38.254Z,15.00
2018-04-06T10:23:05.826Z,15.00
2018-04-06T10:25:33.361Z,15.20
2018-04-06T10:28:01.005Z,15.20
2018-04-06T10:30:29.311Z,15.30
2018-04-06T10:32:56.878Z,15.20
2018-04-06T10:35:24.438Z,15.30
2018-04-06T10:37:51.990Z,15.50
2018-04-06T10:40:19.540Z,15.70
2018-04-06T10:42:47.097Z,15.70
2018-04-06T10:45:14.637Z,15.70
2018-04-06T10:47:42.977Z,15.60
2018-04-06T10:50:10.526Z,15.60
2018-04-06T10:52:38.114Z,15.60
2018-04-06T10:55:05.674Z,15.60
2018-04-06T10:57:34.025Z,16.00
2018-04-06T11:00:01.590Z,16.00
2018-04-06T11:02:29.205Z,16.10
2018-04-06T11:04:56.772Z,16.20
2018-04-06T11:07:24.336Z,16.10
2018-04-06T11:09:51.923Z,16.20
2018-04-06T11:12:19.497Z,16.30
2018-04-06T11:14:47.101Z,16.10
2018-04-06T11:17:14.669Z,16.10
2018-04-06T11:19:42.255Z,16.20
2018-04-06T11:22:09.801Z,16.40
2018-04-06T11:24:37.366Z,16.40
2018-04-06T11:27:04.910Z,16.50
2018-04-06T11:29:32.477Z,16.60
2018-04-06T11:32:00.029Z,16.80
2018-04-06T11:34:27.600Z,16.80
2018-04-06T11:36:55.146Z,16.90
2018-04-06T11:39:22.708Z,16.90
2018-04-06T11:41:50.257Z,16.90
2018-04-06T11:44:17.820Z,16.90
2018-04-06T11:46:45.366Z,17.00
2018-04-06T11:49:14.010Z,17.20
2018-04-06T11:51:41.554Z,17.10
2018-04-06T11:54:09.122Z,17.10
2018-04-06T11:56:36.696Z,17.10
2018-04-06T11:59:04.245Z,17.20
2018-04-06T12:01:31.812Z,17.10
2018-04-06T12:03:59.360Z,17.20
2018-04-06T12:06:26.924Z,17.10
2018-04-06T12:08:54.459Z,17.20
2018-04-06T12:11:22.020Z,17.40
2018-04-06T12:13:49.580Z,17.40
2018-04-06T12:16:17.149Z,17.30
2018-04-06T12:18:45.460Z,17.50
2018-04-06T12:21:13.033Z,17.50
2018-04-06T12:23:41.390Z,17.90
2018-04-06T12:26:08.920Z,17.90
2018-04-06T12:28:36.460Z,17.90
2018-04-06T12:31:04.033Z,17.80
2018-04-06T12:33:31.584Z,17.70
2018-04-06T12:35:59.280Z,17.70
2018-04-06T12:38:26.847Z,17.80
2018-04-06T12:40:54.436Z,17.80
2018-04-06T12:43:22.759Z,18.00
2018-04-06T12:45:50.302Z,18.00
2018-04-06T12:48:17.869Z,17.90
2018-04-06T12:50:46.193Z,18.10
2018-04-06T12:53:13.765Z,18.00
2018-04-06T12:55:42.087Z,18.30
2018-04-06T12:58:09.647Z,18.30
2018-04-06T13:00:37.179Z,18.40
2018-04-06T13:03:04.861Z,18.30
2018-04-06T13:05:32.329Z,18.40
2018-04-06T13:07:59.887Z,18.50
2018-04-06T13:10:27.468Z,18.60
2018-04-06T13:12:55.012Z,18.80
2018-04-06T13:15:22.561Z,18.80
2018-04-06T13:17:50.124Z,18.90
2018-04-06T13:20:17.757Z,18.90
2018-04-06T13:22:45.333Z,18.90
2018-04-06T13:25:12.881Z,18.90
2018-04-06T13:27:40.456Z,18.80
2018-04-06T13:30:08.004Z,18.80
2018-04-06T13:32:35.594Z,18.80
2018-04-06T13:35:03.201Z,18.90
2018-04-06T13:37:31.521Z,19.00
2018-04-06T13:39:59.110Z,18.90
2018-04-06T13:42:26.725Z,19.10
2018-04-06T13:44:54.297Z,19.10
2018-04-06T13:47:21.841Z,19.20
2018-04-06T13:49:49.413Z,19.20
2018-04-06T13:52:16.955Z,19.30
2018-04-06T13:54:44.555Z,19.30
2018-04-06T13:57:12.116Z,19.20
2018-04-06T13:59:39.689Z,19.30
2018-04-06T14:02:07.238Z,19.20
2018-04-06T14:04:34.817Z,19.30
2018-04-06T14:07:02.364Z,19.50
2018-04-06T14:09:29.940Z,19.60
2018-04-06T14:11:57.472Z,19.60
2018-04-06T14:14:25.054Z,19.50
2018-04-06T14:16:52.605Z,19.40
2018-04-06T14:19:20.149Z,19.40
2018-04-06T14:21:47.749Z,19.50
2018-04-06T14:24:15.276Z,19.40
2018-04-06T14:26:42.874Z,19.60
2018-04-06T14:29:11.191Z,19.70
2018-04-06T14:31:38.765Z,19.70
2018-04-06T14:34:06.316Z,19.80
2018-04-06T14:36:34.640Z,19.80
2018-04-06T14:39:02.966Z,19.90
2018-04-06T14:41:30.537Z,19.90
2018-04-06T14:43:58.094Z,19.70
2018-04-06T14:46:25.672Z,19.70
2018-04-06T14:48:53.225Z,19.70
2018-04-06T14:51:20.779Z,19.70
2018-04-06T14:53:48.324Z,19.80
2018-04-06T14:56:15.905Z,19.80
2018-04-06T14:58:43.469Z,19.80
2018-04-06T15:01:11.036Z,19.80
2018-04-06T15:03:38.584Z,19.70
2018-04-06T15:06:06.161Z,19.80
2018-04-06T15:08:33.728Z,19.70
2018-04-06T15:11:02.098Z,19.60
2018-04-06T15:13:29.648Z,19.50
2018-04-06T15:15:57.207Z,19.50
2018-04-06T15:18:24.763Z,19.50
2018-04-06T15:20:52.305Z,19.60
2018-04-06T15:23:19.892Z,19.50
2018-04-06T15:25:47.458Z,19.50
2018-04-06T15:28:15.139Z,19.30
2018-04-06T15:30:42.698Z,19.30
2018-04-06T15:33:11.042Z,19.00
2018-04-06T15:35:38.584Z,19.00
2018-04-06T15:38:06.180Z,19.10
2018-04-06T15:40:34.542Z,19.00
2018-04-06T15:43:02.980Z,19.00
2018-04-06T15:45:30.538Z,19.00
2018-04-06T15:47:58.099Z,19.10
2018-04-06T15:50:25.635Z,19.10
2018-04-06T15:52:53.969Z,19.10
2018-04-06T15:55:21.531Z,19.10
2018-04-06T15:57:49.149Z,19.00
2018-04-06T16:00:16.692Z,18.90
2018-04-06T16:02:45.002Z,18.90
2018-04-06T16:05:12.573Z,18.80
2018-04-06T16:07:40.102Z,18.90
2018-04-06T16:10:07.673Z,18.90
2018-04-06T16:12:35.217Z,18.90
2018-04-06T16:15:02.802Z,18.80
2018-04-06T16:17:30.340Z,18.80
2018-04-06T16:19:57.917Z,18.70
2018-04-06T16:22:25.464Z,18.60
2018-04-06T16:24:53.041Z,18.40
2018-04-06T16:27:20.579Z,18.40
2018-04-06T16:29:48.149Z,18.50
2018-04-06T16:32:15.705Z,18.60
2018-04-06T16:34:43.294Z,18.80
2018-04-06T16:37:10.866Z,19.20
2018-04-06T16:39:38.431Z,19.40
2018-04-06T16:42:05.977Z,19.70
2018-04-06T16:44:33.553Z,19.90
2018-04-06T16:47:01.097Z,20.00
2018-04-06T16:49:28.686Z,20.00
2018-04-06T16:51:57.084Z,20.20
2018-04-06T16:54:24.920Z,20.20
2018-04-06T16:56:52.457Z,20.00
2018-04-06T16:59:20.777Z,19.80
2018-04-06T17:01:49.114Z,19.70
2018-04-06T17:04:16.675Z,19.70
2018-04-06T17:06:44.353Z,19.80
2018-04-06T17:09:11.920Z,20.00
2018-04-06T17:11:40.257Z,19.90
2018-04-06T17:14:07.790Z,19.90
2018-04-06T17:16:35.354Z,19.80
2018-04-06T17:19:02.897Z,19.60
2018-04-06T17:21:31.243Z,19.20
2018-04-06T17:23:58.817Z,19.20
2018-04-06T17:26:27.170Z,18.80
2018-04-06T17:28:54.731Z,18.70
2018-04-06T17:31:22.321Z,18.70
2018-04-06T17:33:50.632Z,18.40
2018-04-06T17:36:18.203Z,18.40
2018-04-06T17:38:45.761Z,18.20
2018-04-06T17:41:13.334Z,17.90
2018-04-06T17:43:40.886Z,17.60
2018-04-06T17:46:08.452Z,17.30
2018-04-06T17:48:36.013Z,16.90
2018-04-06T17:51:03.570Z,16.60
2018-04-06T17:53:31.156Z,16.20
2018-04-06T17:55:58.711Z,16.00
2018-04-06T17:58:26.276Z,15.70
2018-04-06T18:00:54.631Z,15.30
2018-04-06T18:03:22.201Z,15.30
2018-04-06T18:05:49.745Z,15.10
2018-04-06T18:08:17.315Z,15.00
2018-04-06T18:10:44.857Z,14.80
2018-04-06T18:13:12.435Z,14.60
2018-04-06T18:15:39.982Z,14.50
2018-04-06T18:18:07.558Z,14.40
2018-04-06T18:20:35.114Z,14.30
2018-04-06T18:23:02.681Z,14.20
2018-04-06T18:25:30.256Z,14.10
2018-04-06T18:27:58.607Z,13.90
2018-04-06T18:30:26.185Z,13.90
2018-04-06T18:32:53.731Z,13.80
2018-04-06T18:35:21.309Z,13.70
2018-04-06T18:37:48.857Z,13.60
2018-04-06T18:40:16.450Z,13.60
2018-04-06T18:42:44.776Z,13.40
2018-04-06T18:45:12.366Z,13.40
2018-04-06T18:47:39.965Z,13.30
2018-04-06T18:50:08.376Z,13.10
2018-04-06T18:52:35.929Z,13.10
2018-04-06T18:55:03.525Z,13.00
2018-04-06T18:57:31.090Z,13.00
2018-04-06T18:59:59.440Z,13.00
2018-04-06T19:02:27.006Z,12.90
2018-04-06T19:04:54.590Z,12.90
2018-04-06T19:07:22.902Z,12.70
2018-04-06T19:09:50.474Z,12.70
2018-04-06T19:12:18.024Z,12.70
2018-04-06T19:14:45.577Z,12.60
2018-04-06T19:17:13.149Z,12.50
2018-04-06T19:19:40.711Z,12.60
2018-04-06T19:22:08.306Z,12.60
2018-04-06T19:24:35.865Z,12.60
2018-04-06T19:27:03.441Z,12.60
2018-04-06T19:29:30.991Z,12.50
2018-04-06T19:31:58.551Z,12.50
2018-04-06T19:34:26.104Z,12.40
2018-04-06T20:58:50.821Z,12.30
2018-04-06T21:01:18.367Z,9.90
2018-04-06T21:03:45.937Z,9.80
2018-04-06T21:06:13.495Z,9.80
2018-04-06T21:08:41.073Z,9.80
2018-04-06T21:11:09.378Z,9.80
2018-04-06T21:13:36.924Z,9.80
2018-04-06T21:16:04.479Z,9.80
2018-04-06T21:18:32.024Z,9.80
2018-04-06T21:20:59.602Z,9.70
2018-04-06T21:23:27.144Z,9.70
2018-04-06T21:25:54.728Z,9.60
2018-04-06T21:28:22.281Z,9.60
2018-04-06T21:30:49.857Z,9.60
2018-04-06T21:33:17.400Z,9.50
2018-04-06T21:35:44.981Z,9.40
2018-04-06T21:38:13.297Z,9.40
2018-04-06T21:40:40.879Z,9.40
2018-04-06T21:43:08.409Z,9.40
2018-04-06T21:45:35.982Z,9.40
2018-04-06T21:48:03.524Z,9.30
2018-04-06T21:50:31.092Z,9.30
2018-04-06T21:52:58.630Z,9.30
2018-04-06T21:55:26.970Z,9.30
2018-04-06T21:57:54.527Z,9.30
2018-04-06T22:00:22.065Z,9.30
2018-04-06T22:02:49.646Z,9.30
2018-04-06T22:05:17.193Z,9.30
2018-04-06T22:07:44.765Z,9.20
2018-04-06T22:10:12.339Z,9.20
2018-04-06T22:12:39.913Z,9.20
2018-04-06T22:15:08.692Z,9.10
2018-04-06T22:17:36.261Z,9.10
2018-04-06T22:20:04.585Z,9.10
2018-04-06T22:22:32.157Z,9.10
2018-04-06T22:24:59.708Z,9.00
2018-04-06T22:27:27.283Z,8.90
2018-04-06T22:29:54.819Z,8.90
2018-04-06T22:32:22.380Z,8.90
2018-04-06T22:34:50.055Z,8.80
2018-04-06T22:37:17.657Z,8.80
2018-04-06T22:39:45.225Z,8.80
2018-04-06T22:42:13.562Z,8.80
2018-04-06T22:44:41.104Z,8.80
2018-04-06T22:47:08.680Z,8.80
2018-04-06T22:49:36.216Z,8.70
2018-04-06T22:52:03.788Z,8.70
2018-04-06T22:54:31.322Z,8.70
2018-04-06T22:56:58.868Z,8.70
2018-04-06T22:59:26.431Z,8.70
2018-04-06T23:01:53.972Z,8.70
2018-04-06T23:04:22.309Z,8.60
2018-04-06T23:06:49.856Z,8.60
2018-04-06T23:09:17.430Z,8.60
2018-04-06T23:11:44.968Z,8.50
2018-04-06T23:14:12.536Z,8.50
2018-04-06T23:16:40.097Z,8.50
2018-04-06T23:19:07.671Z,8.50
2018-04-06T23:21:35.216Z,8.40
2018-04-06T23:24:02.781Z,8.30
2018-04-06T23:26:30.316Z,8.30
2018-04-06T23:28:57.894Z,8.20
2018-04-06T23:31:25.442Z,8.20
2018-04-06T23:33:53.044Z,8.10
2018-04-06T23:36:20.608Z,8.20
2018-04-06T23:38:48.164Z,8.20
2018-04-06T23:41:15.750Z,8.20
2018-04-06T23:43:44.069Z,7.90
2018-04-06T23:46:11.642Z,7.90
2018-04-06T23:48:39.208Z,7.90
2018-04-06T23:51:06.781Z,7.90
2018-04-06T23:53:34.340Z,7.90
2018-04-06T23:56:01.917Z,7.80
2018-04-06T23:58:30.224Z,7.70
